THY5NP LTFM-LTAS
Flight info
| Callsign | THY5NP |
|---|---|
| Flight time | 0h 37m |
| Altitude | 23000 |
| Route | EKAWE T643 ATPIX DCT GUMRU W107 EVLAP |
| Aircraft | A319/M-SDE3FGHIRWY/LB1 |
Departure
| Time | 2026-05-05 08:28 |
|---|---|
| Airport | İstanbul Airport (LTFM) |
Arrival
| Time | 2026-05-05 09:05 |
|---|---|
| Airport | Zonguldak Çaycuma Airport (LTAS) |
| Time | Latitude | Longitude | Altitude | Speed | Heading |
|---|---|---|---|---|---|
| 2026-05-05 08:07 | 41.25877 | 28.75008 | 313 ft | 0 kts | 251° |
| 2026-05-05 08:16 | 41.25879 | 28.75015 | 313 ft | 2 kts | 249° |
| 2026-05-05 08:17 | 41.25884 | 28.75036 | 313 ft | 2 kts | 250° |
| 2026-05-05 08:17 | 41.25890 | 28.75056 | 313 ft | 2 kts | 249° |
| 2026-05-05 08:17 | 41.25895 | 28.75077 | 312 ft | 2 kts | 281° |
| 2026-05-05 08:17 | 41.25890 | 28.75097 | 313 ft | 2 kts | 306° |
| 2026-05-05 08:18 | 41.25879 | 28.75114 | 313 ft | 2 kts | 321° |
| 2026-05-05 08:18 | 41.25867 | 28.75125 | 313 ft | 1 kts | 334° |
| 2026-05-05 08:18 | 41.25864 | 28.75128 | 313 ft | 0 kts | 339° |
| 2026-05-05 08:22 | 41.25873 | 28.75123 | 313 ft | 4 kts | 339° |
| 2026-05-05 08:22 | 41.25922 | 28.75142 | 311 ft | 11 kts | 53° |
| 2026-05-05 08:22 | 41.25930 | 28.75249 | 314 ft | 13 kts | 89° |
| 2026-05-05 08:23 | 41.25940 | 28.75367 | 314 ft | 13 kts | 58° |
| 2026-05-05 08:23 | 41.26026 | 28.75388 | 315 ft | 14 kts | 359° |
| 2026-05-05 08:23 | 41.26132 | 28.75386 | 315 ft | 17 kts | 359° |
| 2026-05-05 08:23 | 41.26196 | 28.75385 | 314 ft | 8 kts | 359° |
| 2026-05-05 08:24 | 41.26242 | 28.75431 | 314 ft | 8 kts | 77° |
| 2026-05-05 08:24 | 41.26244 | 28.75483 | 314 ft | 0 kts | 89° |
| 2026-05-05 08:25 | 41.26244 | 28.75497 | 314 ft | 4 kts | 89° |
| 2026-05-05 08:26 | 41.26244 | 28.75554 | 314 ft | 8 kts | 89° |
| 2026-05-05 08:26 | 41.26245 | 28.75634 | 316 ft | 7 kts | 90° |
| 2026-05-05 08:26 | 41.26286 | 28.75668 | 316 ft | 10 kts | 356° |
| 2026-05-05 08:26 | 41.26315 | 28.75667 | 315 ft | 3 kts | 0° |
| 2026-05-05 08:27 | 41.26363 | 28.75667 | 314 ft | 13 kts | 359° |
| 2026-05-05 08:27 | 41.26696 | 28.75662 | 308 ft | 84 kts | 359° |
| 2026-05-05 08:27 | 41.27499 | 28.75650 | 294 ft | 144 kts | 359° |
| 2026-05-05 08:27 | 41.28591 | 28.75624 | 679 ft | 160 kts | 359° |
| 2026-05-05 08:28 | 41.29701 | 28.75664 | 1406 ft | 162 kts | 13° |
| 2026-05-05 08:28 | 41.30674 | 28.76450 | 2038 ft | 169 kts | 39° |
| 2026-05-05 08:28 | 41.31592 | 28.77407 | 2759 ft | 171 kts | 34° |
| 2026-05-05 08:28 | 41.32628 | 28.78260 | 3372 ft | 179 kts | 29° |
| 2026-05-05 08:29 | 41.33740 | 28.79073 | 3978 ft | 187 kts | 27° |
| 2026-05-05 08:29 | 41.34970 | 28.79971 | 4254 ft | 217 kts | 28° |
| 2026-05-05 08:29 | 41.36367 | 28.81010 | 4742 ft | 242 kts | 29° |
| 2026-05-05 08:30 | 41.39761 | 28.82328 | 6411 ft | 264 kts | 0° |
| 2026-05-05 08:30 | 41.41608 | 28.82155 | 7382 ft | 270 kts | 355° |
| 2026-05-05 08:30 | 41.43491 | 28.81921 | 7822 ft | 273 kts | 355° |
| 2026-05-05 08:30 | 41.45397 | 28.81682 | 8650 ft | 275 kts | 355° |
| 2026-05-05 08:31 | 41.47313 | 28.81443 | 9596 ft | 277 kts | 355° |
| 2026-05-05 08:31 | 41.49258 | 28.81205 | 10374 ft | 288 kts | 355° |
| 2026-05-05 08:31 | 41.51339 | 28.80954 | 10722 ft | 312 kts | 355° |
| 2026-05-05 08:31 | 41.53541 | 28.80685 | 11114 ft | 330 kts | 355° |
| 2026-05-05 08:32 | 41.55855 | 28.80396 | 11796 ft | 338 kts | 355° |
| 2026-05-05 08:32 | 41.58213 | 28.80187 | 12555 ft | 341 kts | 1° |
| 2026-05-05 08:32 | 41.60576 | 28.80589 | 13290 ft | 344 kts | 15° |
| 2026-05-05 08:32 | 41.62828 | 28.81709 | 13832 ft | 349 kts | 27° |
| 2026-05-05 08:33 | 41.64840 | 28.83534 | 14521 ft | 352 kts | 39° |
| 2026-05-05 08:33 | 41.66718 | 28.85668 | 15231 ft | 355 kts | 39° |
| 2026-05-05 08:33 | 41.68619 | 28.87811 | 15909 ft | 359 kts | 39° |
| 2026-05-05 08:33 | 41.70542 | 28.89973 | 16585 ft | 363 kts | 39° |
| 2026-05-05 08:34 | 41.72410 | 28.92277 | 17234 ft | 367 kts | 47° |
| 2026-05-05 08:34 | 41.73947 | 28.95033 | 17885 ft | 373 kts | 58° |
| 2026-05-05 08:34 | 41.75107 | 28.98158 | 18526 ft | 377 kts | 64° |
| 2026-05-05 08:34 | 41.76191 | 29.01328 | 19160 ft | 380 kts | 64° |
| 2026-05-05 08:35 | 41.77305 | 29.04565 | 19795 ft | 384 kts | 64° |
| 2026-05-05 08:35 | 41.78431 | 29.07822 | 20406 ft | 387 kts | 64° |
| 2026-05-05 08:35 | 41.79569 | 29.11106 | 21007 ft | 390 kts | 64° |
| 2026-05-05 08:35 | 41.80715 | 29.14420 | 21585 ft | 393 kts | 64° |
| 2026-05-05 08:36 | 41.81865 | 29.17762 | 22136 ft | 396 kts | 64° |
| 2026-05-05 08:36 | 41.83027 | 29.21136 | 22668 ft | 399 kts | 64° |
| 2026-05-05 08:36 | 41.84198 | 29.24535 | 22994 ft | 402 kts | 64° |
| 2026-05-05 08:36 | 41.85368 | 29.27937 | 23069 ft | 404 kts | 64° |
| 2026-05-05 08:37 | 41.86546 | 29.31380 | 23082 ft | 406 kts | 64° |
| 2026-05-05 08:37 | 41.87718 | 29.34823 | 23082 ft | 406 kts | 64° |
| 2026-05-05 08:37 | 41.88892 | 29.38275 | 23082 ft | 406 kts | 64° |
| 2026-05-05 08:37 | 41.90089 | 29.41702 | 23081 ft | 405 kts | 60° |
| 2026-05-05 08:38 | 41.91586 | 29.44840 | 23082 ft | 403 kts | 51° |
| 2026-05-05 08:38 | 41.93408 | 29.47699 | 23083 ft | 403 kts | 47° |
| 2026-05-05 08:38 | 41.95264 | 29.50527 | 23082 ft | 403 kts | 47° |
| 2026-05-05 08:38 | 41.97116 | 29.53351 | 23081 ft | 403 kts | 47° |
| 2026-05-05 08:39 | 41.98965 | 29.56175 | 23079 ft | 402 kts | 47° |
| 2026-05-05 08:39 | 42.00811 | 29.59003 | 23078 ft | 402 kts | 48° |
| 2026-05-05 08:39 | 42.02639 | 29.61852 | 23076 ft | 403 kts | 50° |
| 2026-05-05 08:39 | 42.04162 | 29.65020 | 23073 ft | 404 kts | 62° |
| 2026-05-05 08:40 | 42.05197 | 29.68535 | 23072 ft | 406 kts | 72° |
| 2026-05-05 08:40 | 42.05707 | 29.72272 | 23070 ft | 408 kts | 84° |
| 2026-05-05 08:40 | 42.05664 | 29.76092 | 23071 ft | 410 kts | 94° |
| 2026-05-05 08:40 | 42.05395 | 29.79911 | 23073 ft | 410 kts | 94° |
| 2026-05-05 08:41 | 42.05124 | 29.83732 | 23070 ft | 410 kts | 94° |
| 2026-05-05 08:41 | 42.04854 | 29.87553 | 23072 ft | 411 kts | 94° |
| 2026-05-05 08:41 | 42.04586 | 29.91374 | 23073 ft | 410 kts | 93° |
| 2026-05-05 08:41 | 42.04320 | 29.95193 | 23073 ft | 410 kts | 93° |
| 2026-05-05 08:42 | 42.04052 | 29.99020 | 23073 ft | 410 kts | 93° |
| 2026-05-05 08:42 | 42.03787 | 30.02788 | 23073 ft | 410 kts | 94° |
| 2026-05-05 08:42 | 42.03511 | 30.06612 | 23072 ft | 410 kts | 94° |
| 2026-05-05 08:42 | 42.02942 | 30.10378 | 23069 ft | 413 kts | 105° |
| 2026-05-05 08:43 | 42.01882 | 30.13974 | 23064 ft | 416 kts | 115° |
| 2026-05-05 08:43 | 42.00369 | 30.17293 | 23059 ft | 418 kts | 124° |
| 2026-05-05 08:43 | 41.98632 | 30.20437 | 23058 ft | 418 kts | 124° |
| 2026-05-05 08:43 | 41.96901 | 30.23567 | 23056 ft | 418 kts | 124° |
| 2026-05-05 08:44 | 41.95161 | 30.26708 | 23055 ft | 418 kts | 124° |
| 2026-05-05 08:44 | 41.93427 | 30.29845 | 23055 ft | 418 kts | 124° |
| 2026-05-05 08:44 | 41.91692 | 30.32981 | 23054 ft | 418 kts | 124° |
| 2026-05-05 08:44 | 41.89953 | 30.36110 | 23053 ft | 418 kts | 124° |
| 2026-05-05 08:45 | 41.88210 | 30.39242 | 23052 ft | 418 kts | 124° |
| 2026-05-05 08:45 | 41.86473 | 30.42370 | 23055 ft | 418 kts | 124° |
| 2026-05-05 08:45 | 41.84762 | 30.45458 | 23050 ft | 418 kts | 124° |
| 2026-05-05 08:45 | 41.83026 | 30.48586 | 23051 ft | 418 kts | 124° |
| 2026-05-05 08:46 | 41.81283 | 30.51716 | 23052 ft | 418 kts | 124° |
| 2026-05-05 08:46 | 41.79539 | 30.54844 | 23053 ft | 418 kts | 124° |
| 2026-05-05 08:46 | 41.77797 | 30.57965 | 23054 ft | 418 kts | 124° |
| 2026-05-05 08:46 | 41.76092 | 30.61127 | 23053 ft | 417 kts | 120° |
| 2026-05-05 08:47 | 41.74738 | 30.64540 | 23034 ft | 414 kts | 111° |
| 2026-05-05 08:47 | 41.73710 | 30.68138 | 22773 ft | 411 kts | 108° |
| 2026-05-05 08:47 | 41.72724 | 30.71706 | 22523 ft | 409 kts | 108° |
| 2026-05-05 08:47 | 41.71750 | 30.75223 | 22276 ft | 407 kts | 108° |
| 2026-05-05 08:48 | 41.70766 | 30.78764 | 22024 ft | 405 kts | 108° |
| 2026-05-05 08:48 | 41.69785 | 30.82288 | 21776 ft | 403 kts | 108° |
| 2026-05-05 08:48 | 41.68805 | 30.85796 | 21526 ft | 402 kts | 108° |
| 2026-05-05 08:48 | 41.67825 | 30.89287 | 21280 ft | 400 kts | 108° |
| 2026-05-05 08:49 | 41.66846 | 30.92760 | 21028 ft | 398 kts | 108° |
| 2026-05-05 08:49 | 41.65869 | 30.96219 | 20774 ft | 397 kts | 108° |
| 2026-05-05 08:49 | 41.64902 | 30.99645 | 20409 ft | 391 kts | 108° |
| 2026-05-05 08:49 | 41.63944 | 31.03044 | 19897 ft | 387 kts | 108° |
| 2026-05-05 08:50 | 41.62999 | 31.06396 | 19375 ft | 383 kts | 109° |
| 2026-05-05 08:50 | 41.62063 | 31.09707 | 18859 ft | 379 kts | 109° |
| 2026-05-05 08:50 | 41.61133 | 31.12994 | 18321 ft | 375 kts | 109° |
| 2026-05-05 08:50 | 41.60217 | 31.16230 | 17799 ft | 370 kts | 109° |
| 2026-05-05 08:51 | 41.59310 | 31.19432 | 17257 ft | 366 kts | 109° |
| 2026-05-05 08:51 | 41.58423 | 31.22551 | 16731 ft | 361 kts | 109° |
| 2026-05-05 08:51 | 41.57534 | 31.25673 | 16174 ft | 358 kts | 109° |
| 2026-05-05 08:51 | 41.56652 | 31.28762 | 15639 ft | 354 kts | 109° |
| 2026-05-05 08:52 | 41.55777 | 31.31820 | 15088 ft | 351 kts | 109° |
| 2026-05-05 08:52 | 41.55039 | 31.34905 | 14541 ft | 346 kts | 101° |
| 2026-05-05 08:52 | 41.54737 | 31.38076 | 13980 ft | 342 kts | 92° |
| 2026-05-05 08:52 | 41.54600 | 31.41236 | 13426 ft | 340 kts | 92° |
| 2026-05-05 08:53 | 41.54453 | 31.44371 | 12873 ft | 337 kts | 93° |
| 2026-05-05 08:53 | 41.54300 | 31.47484 | 12325 ft | 335 kts | 93° |
| 2026-05-05 08:53 | 41.54148 | 31.50580 | 11777 ft | 333 kts | 93° |
| 2026-05-05 08:53 | 41.53997 | 31.53644 | 11234 ft | 330 kts | 93° |
| 2026-05-05 08:54 | 41.53703 | 31.56678 | 10701 ft | 329 kts | 103° |
| 2026-05-05 08:54 | 41.52942 | 31.59490 | 10541 ft | 315 kts | 115° |
| 2026-05-05 08:54 | 41.51828 | 31.61931 | 10412 ft | 302 kts | 127° |
| 2026-05-05 08:54 | 41.50575 | 31.64124 | 10182 ft | 294 kts | 127° |
| 2026-05-05 08:55 | 41.49345 | 31.66277 | 9928 ft | 290 kts | 127° |
| 2026-05-05 08:55 | 41.48123 | 31.68413 | 9807 ft | 289 kts | 127° |
| 2026-05-05 08:55 | 41.46905 | 31.70543 | 9682 ft | 289 kts | 127° |
| 2026-05-05 08:55 | 41.45684 | 31.72679 | 9358 ft | 290 kts | 127° |
| 2026-05-05 08:56 | 41.44474 | 31.74791 | 8912 ft | 292 kts | 127° |
| 2026-05-05 08:56 | 41.43245 | 31.76934 | 8469 ft | 292 kts | 127° |
| 2026-05-05 08:56 | 41.42016 | 31.79070 | 8192 ft | 287 kts | 127° |
| 2026-05-05 08:56 | 41.40804 | 31.81173 | 7796 ft | 285 kts | 128° |
| 2026-05-05 08:57 | 41.39605 | 31.83256 | 7259 ft | 283 kts | 127° |
| 2026-05-05 08:57 | 41.38411 | 31.85332 | 6723 ft | 280 kts | 127° |
| 2026-05-05 08:57 | 41.37230 | 31.87385 | 6188 ft | 278 kts | 128° |
| 2026-05-05 08:57 | 41.36054 | 31.89422 | 5680 ft | 275 kts | 128° |
| 2026-05-05 08:58 | 41.34891 | 31.91429 | 5162 ft | 273 kts | 128° |
| 2026-05-05 08:58 | 41.33765 | 31.93376 | 5028 ft | 259 kts | 128° |
| 2026-05-05 08:58 | 41.32689 | 31.95241 | 4904 ft | 250 kts | 127° |
| 2026-05-05 08:58 | 41.31834 | 31.97179 | 4793 ft | 239 kts | 110° |
| 2026-05-05 08:59 | 41.31480 | 31.99315 | 4622 ft | 238 kts | 93° |
| 2026-05-05 08:59 | 41.31459 | 32.01498 | 4310 ft | 229 kts | 90° |
| 2026-05-05 08:59 | 41.31449 | 32.03546 | 4108 ft | 216 kts | 90° |
| 2026-05-05 08:59 | 41.31440 | 32.05541 | 3570 ft | 220 kts | 89° |
| 2026-05-05 09:00 | 41.31820 | 32.07435 | 3255 ft | 212 kts | 52° |
| 2026-05-05 09:00 | 41.33016 | 32.08439 | 2918 ft | 203 kts | 5° |
| 2026-05-05 09:00 | 41.34369 | 32.08371 | 2824 ft | 188 kts | 357° |
| 2026-05-05 09:00 | 41.35662 | 32.08389 | 2512 ft | 185 kts | 1° |
| 2026-05-05 09:01 | 41.36934 | 32.08423 | 2310 ft | 178 kts | 0° |
| 2026-05-05 09:01 | 41.38122 | 32.08446 | 2216 ft | 164 kts | 0° |
| 2026-05-05 09:01 | 41.39209 | 32.08465 | 2201 ft | 150 kts | 0° |
| 2026-05-05 09:01 | 41.40212 | 32.08480 | 2105 ft | 139 kts | 0° |
| 2026-05-05 09:02 | 41.41154 | 32.08496 | 1926 ft | 133 kts | 0° |
| 2026-05-05 09:02 | 41.42067 | 32.08509 | 1748 ft | 131 kts | 0° |
| 2026-05-05 09:02 | 41.42974 | 32.08523 | 1540 ft | 130 kts | 0° |
| 2026-05-05 09:02 | 41.43873 | 32.08537 | 1358 ft | 128 kts | 0° |
| 2026-05-05 09:03 | 41.44763 | 32.08552 | 1160 ft | 128 kts | 0° |
| 2026-05-05 09:03 | 41.45650 | 32.08564 | 956 ft | 127 kts | 360° |
| 2026-05-05 09:03 | 41.46534 | 32.08560 | 745 ft | 127 kts | 359° |
| 2026-05-05 09:03 | 41.47413 | 32.08540 | 589 ft | 127 kts | 359° |
| 2026-05-05 09:04 | 41.48292 | 32.08576 | 388 ft | 126 kts | 3° |
| 2026-05-05 09:04 | 41.49168 | 32.08679 | 198 ft | 126 kts | 5° |
| 2026-05-05 09:04 | 41.49745 | 32.08756 | 65 ft | 125 kts | 5° |
| 2026-05-05 09:04 | 41.50453 | 32.08845 | 49 ft | 73 kts | 5° |
| 2026-05-05 09:05 | 41.50993 | 32.08915 | 53 ft | 44 kts | 6° |
| 2026-05-05 09:05 | 41.51174 | 32.08939 | 54 ft | 33 kts | 5° |
| 2026-05-05 09:05 | 41.51356 | 32.08962 | 52 ft | 19 kts | 5° |
| 2026-05-05 09:05 | 41.51435 | 32.08981 | 51 ft | 3 kts | 257° |
| 2026-05-05 09:06 | 41.51413 | 32.08965 | 48 ft | 8 kts | 189° |
| 2026-05-05 09:06 | 41.51328 | 32.08958 | 53 ft | 16 kts | 186° |
| 2026-05-05 09:06 | 41.51205 | 32.08943 | 53 ft | 20 kts | 185° |
| 2026-05-05 09:06 | 41.51056 | 32.08924 | 53 ft | 21 kts | 186° |
| 2026-05-05 09:07 | 41.50922 | 32.08907 | 54 ft | 14 kts | 185° |
| 2026-05-05 09:07 | 41.50819 | 32.08894 | 52 ft | 14 kts | 185° |
| 2026-05-05 09:07 | 41.50738 | 32.08883 | 48 ft | 7 kts | 186° |
| 2026-05-05 09:07 | 41.50694 | 32.08916 | 50 ft | 7 kts | 105° |
| 2026-05-05 09:08 | 41.50693 | 32.08938 | 50 ft | 1 kts | 91° |
| 2026-05-05 09:08 | 41.50697 | 32.08954 | 50 ft | 2 kts | 65° |
| 2026-05-05 09:08 | 41.50705 | 32.08982 | 50 ft | 3 kts | 84° |
| 2026-05-05 09:08 | 41.50688 | 32.08993 | 51 ft | 3 kts | 179° |
| 2026-05-05 09:09 | 41.50676 | 32.08992 | 51 ft | 2 kts | 181° |
| 2026-05-05 09:09 | 41.50673 | 32.08992 | 51 ft | 0 kts | 181° |